createdAt,value
2018-02-22T00:01:30.349Z,22.97
2018-02-22T00:03:58.466Z,23.67
2018-02-22T00:06:26.579Z,22.90
2018-02-22T00:08:54.709Z,23.70
2018-02-22T00:11:22.841Z,23.20
2018-02-22T00:13:50.969Z,23.17
2018-02-22T00:16:19.072Z,24.10
2018-02-22T00:18:47.198Z,22.37
2018-02-22T00:21:15.306Z,22.97
2018-02-22T00:23:43.421Z,22.23
2018-02-22T00:26:11.542Z,24.27
2018-02-22T00:28:39.651Z,22.00
2018-02-22T00:31:07.762Z,22.77
2018-02-22T00:33:35.895Z,23.73
2018-02-22T00:36:03.992Z,23.47
2018-02-22T00:38:32.226Z,24.00
2018-02-22T00:41:00.361Z,23.50
2018-02-22T00:43:28.474Z,22.53
2018-02-22T00:45:56.589Z,23.03
2018-02-22T00:48:24.687Z,23.33
2018-02-22T00:50:52.836Z,22.50
2018-02-22T00:53:20.960Z,23.07
2018-02-22T00:55:49.071Z,23.03
2018-02-22T00:58:17.186Z,23.23
2018-02-22T01:00:45.300Z,23.20
2018-02-22T01:03:13.428Z,23.70
2018-02-22T01:05:41.553Z,22.77
2018-02-22T01:08:09.654Z,22.27
2018-02-22T01:10:37.782Z,22.60
2018-02-22T01:13:05.901Z,22.80
2018-02-22T01:15:34.026Z,22.13
2018-02-22T01:18:02.125Z,23.27
2018-02-22T01:20:30.253Z,22.60
2018-02-22T01:22:58.384Z,22.60
2018-02-22T01:25:26.505Z,22.30
2018-02-22T01:27:54.631Z,21.93
2018-02-22T01:30:22.753Z,23.00
2018-02-22T01:32:50.870Z,22.43
2018-02-22T01:35:18.983Z,23.47
2018-02-22T01:37:47.127Z,22.33
2018-02-22T01:40:15.236Z,21.83
2018-02-22T01:42:43.360Z,23.03
2018-02-22T01:45:11.490Z,22.77
2018-02-22T01:47:39.599Z,22.90
2018-02-22T01:50:07.743Z,22.13
2018-02-22T01:52:35.869Z,22.07
2018-02-22T01:55:03.993Z,23.70
2018-02-22T01:57:32.128Z,23.27
2018-02-22T02:00:00.272Z,22.20
2018-02-22T02:02:28.388Z,23.37
2018-02-22T02:04:56.521Z,23.03
2018-02-22T02:07:24.634Z,22.70
2018-02-22T02:09:52.752Z,22.47
2018-02-22T02:12:20.887Z,22.93
2018-02-22T02:14:49.006Z,22.67
2018-02-22T02:17:17.205Z,22.57
2018-02-22T02:19:45.331Z,22.03
2018-02-22T02:22:13.576Z,22.40
2018-02-22T02:24:41.866Z,21.03
2018-02-22T02:27:10.033Z,23.80
2018-02-22T02:29:38.177Z,22.33
2018-02-22T02:32:06.316Z,22.73
2018-02-22T02:34:34.441Z,22.40
2018-02-22T02:37:02.582Z,21.47
2018-02-22T02:39:30.680Z,23.13
2018-02-22T02:41:58.845Z,22.53
2018-02-22T02:44:26.962Z,22.23
2018-02-22T02:46:55.124Z,22.13
2018-02-22T02:49:23.285Z,22.17
2018-02-22T02:51:51.409Z,22.47
2018-02-22T02:54:19.526Z,22.87
2018-02-22T02:56:47.664Z,22.27
2018-02-22T02:59:15.789Z,22.43
2018-02-22T03:01:43.907Z,22.83
2018-02-22T03:04:12.019Z,21.83
2018-02-22T03:06:40.135Z,21.80
2018-02-22T03:09:08.250Z,21.50
2018-02-22T03:11:36.381Z,22.27
2018-02-22T03:14:04.521Z,21.53
2018-02-22T03:16:32.631Z,21.80
2018-02-22T03:19:00.744Z,21.57
2018-02-22T03:21:28.870Z,21.10
2018-02-22T03:23:57.001Z,21.07
2018-02-22T03:26:25.123Z,22.10
2018-02-22T03:28:53.254Z,20.07
2018-02-22T03:31:21.381Z,19.63
2018-02-22T03:33:49.483Z,20.37
2018-02-22T03:36:17.610Z,20.70
2018-02-22T03:38:45.745Z,20.70
2018-02-22T03:41:13.869Z,21.87
2018-02-22T03:43:42.015Z,20.67
2018-02-22T03:46:10.142Z,21.37
2018-02-22T03:48:38.557Z,21.67
2018-02-22T03:51:06.656Z,20.20
2018-02-22T03:53:34.850Z,21.13
2018-02-22T03:56:02.982Z,20.50
2018-02-22T03:58:31.095Z,20.00
2018-02-22T04:00:59.220Z,21.63
2018-02-22T04:03:27.348Z,20.77
2018-02-22T04:05:55.482Z,20.07
2018-02-22T04:08:23.609Z,21.13
2018-02-22T04:10:51.725Z,19.07
2018-02-22T04:13:20.334Z,20.70
2018-02-22T04:15:48.441Z,21.80
2018-02-22T04:18:18.463Z,21.40
2018-02-22T04:20:46.575Z,19.87
2018-02-22T04:23:14.707Z,19.67
2018-02-22T04:25:42.829Z,20.63
2018-02-22T04:28:10.931Z,18.80
2018-02-22T04:30:39.053Z,19.83
2018-02-22T04:33:07.172Z,19.73
2018-02-22T04:35:35.316Z,20.00
2018-02-22T04:38:03.436Z,20.43
2018-02-22T04:40:31.539Z,20.67
2018-02-22T04:42:59.685Z,19.80
2018-02-22T04:45:27.790Z,20.73
2018-02-22T04:47:55.946Z,20.93
2018-02-22T04:50:24.066Z,18.77
2018-02-22T04:52:52.173Z,19.13
2018-02-22T04:55:20.284Z,19.63
2018-02-22T04:57:48.386Z,19.57
2018-02-22T05:00:16.503Z,18.33
2018-02-22T05:02:44.607Z,18.97
2018-02-22T05:05:12.719Z,20.90
2018-02-22T05:07:40.842Z,18.47
2018-02-22T05:10:09.116Z,19.83
2018-02-22T05:12:37.215Z,19.50
2018-02-22T05:15:05.373Z,19.37
2018-02-22T05:17:33.494Z,19.97
2018-02-22T05:20:01.623Z,19.80
2018-02-22T05:22:29.749Z,18.50
2018-02-22T05:24:57.890Z,18.73
2018-02-22T05:27:25.993Z,19.23
2018-02-22T05:29:54.137Z,20.23
2018-02-22T05:32:23.154Z,19.00
2018-02-22T05:34:51.283Z,19.77
2018-02-22T05:37:22.446Z,19.57
2018-02-22T05:39:50.575Z,19.00
2018-02-22T05:42:18.698Z,18.90
2018-02-22T05:44:46.808Z,19.07
2018-02-22T05:47:14.934Z,19.13
2018-02-22T05:49:43.061Z,20.03
2018-02-22T05:52:11.167Z,19.10
2018-02-22T05:54:39.274Z,18.53
2018-02-22T05:57:07.437Z,18.67
2018-02-22T05:59:35.539Z,18.33
2018-02-22T06:02:03.674Z,19.60
2018-02-22T06:04:31.798Z,19.90
2018-02-22T06:06:59.910Z,19.63
2018-02-22T06:09:28.045Z,19.20
2018-02-22T06:11:56.168Z,19.33
2018-02-22T06:14:24.301Z,20.80
2018-02-22T06:16:52.424Z,19.60
2018-02-22T06:19:20.580Z,19.40
2018-02-22T06:21:48.702Z,18.80
2018-02-22T06:24:16.854Z,19.37
2018-02-22T06:26:44.974Z,20.30
2018-02-22T06:29:13.110Z,18.77
2018-02-22T06:31:41.265Z,20.03
2018-02-22T06:34:09.395Z,19.37
2018-02-22T06:36:37.509Z,19.50
2018-02-22T06:39:05.646Z,20.10
2018-02-22T06:41:33.766Z,19.63
2018-02-22T06:44:01.902Z,20.83
2018-02-22T06:46:30.011Z,19.23
2018-02-22T06:48:58.134Z,19.63
2018-02-22T06:51:26.276Z,18.77
2018-02-22T06:53:54.375Z,19.63
2018-02-22T06:56:22.498Z,20.30
2018-02-22T06:58:50.633Z,19.70
2018-02-22T07:01:18.767Z,19.70
2018-02-22T07:03:46.874Z,20.83
2018-02-22T07:06:18.300Z,19.73
2018-02-22T07:08:46.420Z,21.70
2018-02-22T07:11:14.552Z,20.90
2018-02-22T07:13:42.685Z,20.30
2018-02-22T07:16:10.797Z,20.27
2018-02-22T07:18:38.916Z,21.30
2018-02-22T07:21:07.072Z,20.97
2018-02-22T07:23:35.210Z,21.07
2018-02-22T07:26:03.332Z,21.50
2018-02-22T07:28:31.485Z,19.83
2018-02-22T07:30:59.593Z,20.03
2018-02-22T07:33:27.758Z,20.90
2018-02-22T07:35:55.890Z,21.17
2018-02-22T07:38:24.011Z,20.37
2018-02-22T07:40:52.254Z,21.17
2018-02-22T07:43:20.385Z,21.67
2018-02-22T07:45:48.503Z,19.80
2018-02-22T07:48:16.623Z,20.50
2018-02-22T07:50:44.745Z,20.80
2018-02-22T07:53:12.865Z,20.10
2018-02-22T07:55:40.997Z,21.07
2018-02-22T07:58:09.120Z,20.53
2018-02-22T08:00:37.260Z,19.20
2018-02-22T08:03:05.378Z,19.20
2018-02-22T08:05:33.492Z,19.90
2018-02-22T08:08:01.616Z,19.73
2018-02-22T08:10:29.736Z,19.90
2018-02-22T08:12:57.871Z,20.03
2018-02-22T08:15:26.022Z,20.17
2018-02-22T08:17:54.195Z,19.73
2018-02-22T08:20:22.330Z,19.67
2018-02-22T08:22:50.471Z,20.17
2018-02-22T08:25:18.587Z,19.33
2018-02-22T08:27:46.729Z,19.63
2018-02-22T08:30:14.880Z,19.20
2018-02-22T08:32:43.071Z,18.60
2018-02-22T08:35:11.172Z,19.33
2018-02-22T08:37:39.299Z,19.33
2018-02-22T08:40:07.605Z,19.03
2018-02-22T08:42:35.938Z,18.57
2018-02-22T08:45:04.055Z,18.80
2018-02-22T08:47:32.181Z,19.70
2018-02-22T08:50:00.294Z,19.07
2018-02-22T08:52:31.504Z,18.53
2018-02-22T08:54:59.622Z,19.37
2018-02-22T08:57:27.741Z,18.80
2018-02-22T08:59:55.864Z,18.57
2018-02-22T09:02:23.981Z,18.90
2018-02-22T09:04:52.113Z,19.17
2018-02-22T09:07:20.244Z,19.93
2018-02-22T09:09:48.396Z,18.47
2018-02-22T09:12:16.524Z,17.87
2018-02-22T09:14:44.630Z,17.43
2018-02-22T09:17:12.764Z,18.73
2018-02-22T09:19:40.906Z,18.43
2018-02-22T09:22:09.022Z,18.70
2018-02-22T09:24:37.164Z,18.70
2018-02-22T09:27:05.281Z,18.17
2018-02-22T09:29:33.384Z,17.87
2018-02-22T09:32:01.535Z,17.27
2018-02-22T09:34:29.640Z,18.77
2018-02-22T09:36:57.777Z,17.30
2018-02-22T09:39:25.896Z,18.47
2018-02-22T09:41:54.030Z,18.50
2018-02-22T09:44:22.140Z,19.23
2018-02-22T09:46:50.275Z,19.13
2018-02-22T09:49:18.376Z,17.90
2018-02-22T09:51:46.538Z,18.17
2018-02-22T09:54:14.655Z,19.00
2018-02-22T09:56:45.983Z,17.27
2018-02-22T09:59:14.133Z,17.87
2018-02-22T10:01:42.321Z,17.13
2018-02-22T10:04:10.412Z,18.27
2018-02-22T10:06:38.539Z,18.30
2018-02-22T10:09:06.659Z,16.80
2018-02-22T10:11:34.762Z,17.30
2018-02-22T10:14:02.907Z,17.30
2018-02-22T10:16:31.043Z,17.00
2018-02-22T10:18:59.223Z,16.80
2018-02-22T10:21:27.361Z,15.60
2018-02-22T10:23:55.501Z,16.13
2018-02-22T10:26:23.618Z,15.23
2018-02-22T10:28:51.752Z,15.63
2018-02-22T10:31:23.088Z,16.30
2018-02-22T10:33:51.239Z,15.00
2018-02-22T10:36:19.388Z,13.97
2018-02-22T10:38:47.521Z,14.93
2018-02-22T10:41:15.678Z,14.13
2018-02-22T10:43:43.899Z,13.90
2018-02-22T10:46:12.121Z,14.57
2018-02-22T10:48:40.236Z,13.73
2018-02-22T10:51:08.400Z,14.30
2018-02-22T10:53:36.529Z,14.77
2018-02-22T10:56:06.577Z,16.40
2018-02-22T10:58:34.720Z,16.07
2018-02-22T11:01:08.373Z,15.73
2018-02-22T11:03:37.420Z,16.80
2018-02-22T11:06:05.551Z,16.40
2018-02-22T11:08:33.672Z,15.30
2018-02-22T11:11:01.796Z,15.87
2018-02-22T11:13:29.958Z,16.30
2018-02-22T11:16:01.072Z,14.93
2018-02-22T11:18:29.204Z,14.83
2018-02-22T11:20:57.341Z,14.37
2018-02-22T11:23:25.465Z,14.63
2018-02-22T11:25:53.600Z,13.67
2018-02-22T11:28:21.717Z,13.50
2018-02-22T11:30:49.934Z,12.93
2018-02-22T11:33:18.050Z,13.13
2018-02-22T11:35:46.171Z,13.57
2018-02-22T11:38:14.305Z,11.40
2018-02-22T11:40:42.417Z,12.67
2018-02-22T11:43:10.584Z,12.03
2018-02-22T11:45:38.715Z,12.20
2018-02-22T11:48:06.857Z,11.53
2018-02-22T11:50:34.988Z,11.97
2018-02-22T11:53:03.118Z,11.77
2018-02-22T11:55:31.223Z,12.20
2018-02-22T11:57:59.343Z,11.77
2018-02-22T12:00:27.474Z,12.73
2018-02-22T12:02:55.596Z,11.57
2018-02-22T12:05:23.717Z,11.50
2018-02-22T12:07:51.838Z,11.57
2018-02-22T12:10:23.180Z,10.63
2018-02-22T12:12:51.283Z,10.73
2018-02-22T12:15:19.418Z,10.37
2018-02-22T12:17:47.536Z,9.17
2018-02-22T12:20:15.656Z,10.03
2018-02-22T12:22:43.806Z,10.73
2018-02-22T12:25:11.903Z,10.00
2018-02-22T12:27:40.029Z,10.40
2018-02-22T12:30:08.179Z,9.60
2018-02-22T12:32:36.279Z,9.23
2018-02-22T12:35:05.337Z,9.43
2018-02-22T12:37:33.459Z,9.40
2018-02-22T12:40:01.579Z,8.90
2018-02-22T12:42:29.750Z,9.10
2018-02-22T12:44:57.859Z,9.30
2018-02-22T12:47:25.959Z,9.00
2018-02-22T12:49:54.091Z,8.77
2018-02-22T12:52:22.278Z,7.80
2018-02-22T12:54:50.399Z,7.90
2018-02-22T12:57:18.505Z,7.97
2018-02-22T12:59:46.637Z,7.47
2018-02-22T13:02:14.759Z,7.43
2018-02-22T13:04:42.870Z,7.73
2018-02-22T13:07:10.996Z,7.80
2018-02-22T13:09:39.097Z,7.87
2018-02-22T13:12:07.350Z,5.63
2018-02-22T13:14:35.477Z,7.17
2018-02-22T13:17:03.587Z,6.67
2018-02-22T13:19:31.706Z,7.03
2018-02-22T13:21:59.801Z,7.87
2018-02-22T13:24:27.908Z,7.40
2018-02-22T13:26:56.033Z,6.77
2018-02-22T13:29:24.165Z,7.40
2018-02-22T13:31:52.913Z,7.13
2018-02-22T13:34:35.910Z,7.23
2018-02-22T13:37:15.985Z,6.30
2018-02-22T13:39:44.102Z,10.80
2018-02-22T13:42:12.239Z,6.47
2018-02-22T13:44:52.322Z,6.97
2018-02-22T13:47:20.455Z,6.90
2018-02-22T13:50:00.560Z,6.23
2018-02-22T13:52:28.745Z,6.93
2018-02-22T13:54:56.857Z,6.90
2018-02-22T13:57:24.979Z,7.10
2018-02-22T13:59:53.091Z,7.10
2018-02-22T14:02:24.599Z,6.90
2018-02-22T14:04:52.720Z,7.37
2018-02-22T14:07:20.836Z,7.17
2018-02-22T14:09:48.942Z,6.87
2018-02-22T14:12:17.065Z,7.00
2018-02-22T14:14:45.195Z,6.97
2018-02-22T14:17:13.363Z,7.40
2018-02-22T14:19:41.436Z,6.70
2018-02-22T14:22:09.539Z,7.53
2018-02-22T14:24:37.644Z,7.20
2018-02-22T14:27:05.791Z,7.23
2018-02-22T14:29:33.888Z,7.23
2018-02-22T14:32:01.991Z,7.73
2018-02-22T14:34:30.633Z,7.43
2018-02-22T14:36:58.730Z,7.70
2018-02-22T14:39:26.845Z,7.87
2018-02-22T14:41:54.978Z,7.93
2018-02-22T14:44:23.073Z,8.30
2018-02-22T14:46:51.187Z,7.43
2018-02-22T14:49:19.309Z,7.53
2018-02-22T14:51:47.450Z,8.37
2018-02-22T14:54:15.565Z,7.97
2018-02-22T14:56:43.664Z,8.53
2018-02-22T14:59:13.701Z,8.47
2018-02-22T15:01:41.805Z,8.80
2018-02-22T15:04:09.908Z,8.60
2018-02-22T15:06:38.048Z,9.10
2018-02-22T15:09:06.159Z,10.00
2018-02-22T15:11:34.300Z,9.73
2018-02-22T15:14:02.465Z,10.10
2018-02-22T15:16:30.573Z,10.37
2018-02-22T15:18:58.689Z,9.53
2018-02-22T15:21:26.809Z,9.83
2018-02-22T15:23:55.055Z,10.13
2018-02-22T15:26:23.178Z,9.10
2018-02-22T15:28:51.300Z,9.17
2018-02-22T15:31:19.700Z,9.53
2018-02-22T15:33:47.833Z,9.77
2018-02-22T15:36:15.970Z,10.13
2018-02-22T15:38:44.092Z,9.60
2018-02-22T15:41:12.204Z,9.97
2018-02-22T15:43:40.342Z,10.03
2018-02-22T15:46:08.479Z,10.00
2018-02-22T15:48:36.697Z,10.40
2018-02-22T15:51:04.802Z,10.13
2018-02-22T15:53:32.936Z,9.83
2018-02-22T15:56:01.045Z,11.73
2018-02-22T15:58:29.176Z,11.13
2018-02-22T16:00:57.301Z,11.13
2018-02-22T16:03:25.432Z,11.13
2018-02-22T16:05:53.544Z,11.50
2018-02-22T16:08:21.650Z,11.20
2018-02-22T16:10:49.776Z,10.90
2018-02-22T16:13:18.014Z,11.53
2018-02-22T16:15:46.145Z,11.47
2018-02-22T16:18:14.331Z,11.40
2018-02-22T16:20:42.444Z,12.20
2018-02-22T16:23:10.573Z,11.23
2018-02-22T16:25:38.699Z,11.80
2018-02-22T16:28:06.825Z,12.80
2018-02-22T16:30:34.966Z,12.83
2018-02-22T16:33:03.114Z,12.87
2018-02-22T16:35:31.242Z,13.07
2018-02-22T16:37:59.374Z,12.73
2018-02-22T16:40:27.578Z,11.73
2018-02-22T16:42:55.682Z,12.33
2018-02-22T16:45:27.434Z,13.33
2018-02-22T16:47:55.564Z,13.27
2018-02-22T16:50:23.696Z,12.50
2018-02-22T16:52:51.806Z,12.17
2018-02-22T16:55:19.923Z,12.93
2018-02-22T16:57:51.228Z,12.87
2018-02-22T17:00:19.355Z,12.13
2018-02-22T17:02:47.490Z,12.67
2018-02-22T17:05:15.600Z,12.50
2018-02-22T17:07:43.739Z,12.63
2018-02-22T17:10:11.862Z,13.33
2018-02-22T17:12:39.982Z,13.10
2018-02-22T17:15:08.116Z,12.93
2018-02-22T17:17:45.216Z,13.93
2018-02-22T17:20:13.336Z,13.20
2018-02-22T17:22:41.439Z,13.73
2018-02-22T17:25:09.567Z,14.43
2018-02-22T17:27:43.325Z,13.77
2018-02-22T17:30:17.035Z,13.83
2018-02-22T17:32:45.229Z,13.00
2018-02-22T17:38:38.211Z,13.73
2018-02-22T17:41:06.346Z,13.87
2018-02-22T17:43:34.479Z,13.43
2018-02-22T17:46:02.591Z,13.70
2018-02-22T17:48:30.733Z,13.73
2018-02-22T17:50:58.906Z,13.37
2018-02-22T17:53:27.026Z,14.20
2018-02-22T17:55:55.277Z,12.67
2018-02-22T17:58:23.773Z,13.13
2018-02-22T18:01:03.742Z,13.37
2018-02-22T18:03:31.837Z,13.53
2018-02-22T18:05:59.949Z,12.60
2018-02-22T18:08:28.093Z,12.67
2018-02-22T18:10:56.218Z,13.33
2018-02-22T18:13:24.354Z,13.50
2018-02-22T18:15:52.460Z,13.00
2018-02-22T18:18:20.595Z,13.60
2018-02-22T18:20:48.733Z,11.87
2018-02-22T18:23:16.960Z,13.63
2018-02-22T18:25:45.154Z,13.07
2018-02-22T18:28:13.284Z,12.83
2018-02-22T18:30:41.430Z,13.93
2018-02-22T18:33:09.568Z,12.37
2018-02-22T18:35:37.785Z,13.80
2018-02-22T18:38:05.931Z,12.90
2018-02-22T18:40:39.631Z,13.37
2018-02-22T18:43:13.471Z,12.90
2018-02-22T18:45:41.581Z,14.17
2018-02-22T18:48:09.704Z,14.07
2018-02-22T18:50:37.828Z,14.17
2018-02-22T18:53:05.956Z,13.27
2018-02-22T18:55:34.068Z,14.27
2018-02-22T18:58:02.171Z,14.07
2018-02-22T19:00:30.397Z,13.00
2018-02-22T19:03:01.444Z,13.87
2018-02-22T19:05:33.252Z,13.10
2018-02-22T19:08:01.338Z,13.77
2018-02-22T19:10:29.453Z,14.00
2018-02-22T19:12:57.568Z,13.77
2018-02-22T19:15:25.687Z,13.43
2018-02-22T19:17:53.816Z,14.00
2018-02-22T19:20:21.941Z,13.57
2018-02-22T19:22:53.674Z,13.77
2018-02-22T19:25:21.808Z,13.17
2018-02-22T19:27:49.937Z,13.70
2018-02-22T19:30:18.035Z,13.70
2018-02-22T19:32:46.212Z,13.47
2018-02-22T19:35:14.333Z,13.67
2018-02-22T19:37:42.463Z,14.87
2018-02-22T19:40:10.569Z,12.63
2018-02-22T19:42:38.679Z,14.10
2018-02-22T19:45:06.818Z,13.03
2018-02-22T19:47:34.944Z,12.77
2018-02-22T19:50:03.065Z,13.00
2018-02-22T19:52:31.181Z,12.60
2018-02-22T19:54:59.326Z,13.43
2018-02-22T19:57:27.451Z,12.90
2018-02-22T19:59:55.599Z,12.63
2018-02-22T20:02:23.729Z,12.07
2018-02-22T20:04:51.856Z,12.23
2018-02-22T20:07:19.961Z,12.93
2018-02-22T20:09:48.076Z,13.03
2018-02-22T20:12:16.210Z,12.37
2018-02-22T20:14:44.328Z,12.07
2018-02-22T20:17:12.444Z,11.80
2018-02-22T20:19:40.563Z,12.77
2018-02-22T20:22:08.681Z,11.97
2018-02-22T20:24:36.813Z,11.73
2018-02-22T20:27:04.938Z,12.23
2018-02-22T20:29:33.057Z,12.50
2018-02-22T20:32:05.052Z,12.47
2018-02-22T20:34:33.181Z,11.63
2018-02-22T20:37:01.327Z,12.50
2018-02-22T20:39:29.459Z,12.17
2018-02-22T20:41:57.578Z,12.47
2018-02-22T20:44:25.693Z,11.13
2018-02-22T20:46:53.829Z,11.73
2018-02-22T20:49:21.973Z,11.57
2018-02-22T20:51:51.950Z,12.83
2018-02-22T20:54:20.089Z,12.53
2018-02-22T20:56:48.201Z,12.27
2018-02-22T20:59:17.063Z,12.30
2018-02-22T21:01:45.158Z,13.10
2018-02-22T21:04:14.176Z,12.90
2018-02-22T21:06:42.310Z,12.50
2018-02-22T21:09:10.462Z,12.67
2018-02-22T21:11:38.599Z,13.67
2018-02-22T21:14:06.721Z,12.93
2018-02-22T21:16:34.824Z,13.83
2018-02-22T21:19:02.958Z,13.13
2018-02-22T21:21:31.065Z,13.17
2018-02-22T21:23:59.196Z,13.70
2018-02-22T21:26:27.323Z,13.97
2018-02-22T21:28:55.435Z,14.10
2018-02-22T21:31:23.603Z,14.13
2018-02-22T21:33:51.721Z,14.10
2018-02-22T21:36:19.866Z,13.80
2018-02-22T21:38:47.962Z,13.97
2018-02-22T21:41:16.087Z,13.27
2018-02-22T21:43:44.223Z,15.00
2018-02-22T21:46:13.245Z,15.10
2018-02-22T21:48:41.390Z,14.20
2018-02-22T21:51:12.765Z,13.73
2018-02-22T21:53:40.909Z,14.97
2018-02-22T21:56:09.046Z,14.83
2018-02-22T21:58:37.145Z,14.33
2018-02-22T22:01:05.297Z,13.97
2018-02-22T22:03:33.408Z,14.83
2018-02-22T22:06:01.702Z,14.00
2018-02-22T22:08:29.811Z,14.57
2018-02-22T22:10:57.916Z,14.70
2018-02-22T22:13:26.035Z,14.63
2018-02-22T22:15:54.152Z,13.87
2018-02-22T22:18:22.280Z,14.53
2018-02-22T22:20:50.392Z,15.10
2018-02-22T22:23:18.515Z,15.57
2018-02-22T22:25:46.644Z,15.00
2018-02-22T22:28:14.775Z,15.03
2018-02-22T22:30:42.893Z,14.63
2018-02-22T22:33:10.999Z,14.80
2018-02-22T22:35:39.124Z,14.43
2018-02-22T22:38:07.232Z,14.00
2018-02-22T22:40:35.369Z,15.00
2018-02-22T22:43:03.484Z,14.57
2018-02-22T22:45:31.600Z,15.20
2018-02-22T22:47:59.715Z,15.40
2018-02-22T22:50:27.837Z,15.27
2018-02-22T22:52:55.967Z,14.60
2018-02-22T22:55:24.077Z,14.80
2018-02-22T22:57:52.275Z,15.70
2018-02-22T23:00:22.325Z,14.60
2018-02-22T23:02:50.455Z,14.50
2018-02-22T23:05:18.593Z,15.37
2018-02-22T23:07:46.715Z,14.93
2018-02-22T23:10:14.833Z,14.93
2018-02-22T23:12:42.961Z,14.77
2018-02-22T23:15:11.076Z,14.87
2018-02-22T23:17:39.191Z,14.53
2018-02-22T23:20:07.329Z,14.70
2018-02-22T23:22:35.431Z,15.00
2018-02-22T23:25:03.535Z,15.23
2018-02-22T23:27:31.709Z,15.40
2018-02-22T23:29:59.822Z,15.23
2018-02-22T23:32:27.959Z,14.87
2018-02-22T23:34:56.086Z,15.37
2018-02-22T23:37:24.193Z,14.50
2018-02-22T23:39:52.330Z,14.70
2018-02-22T23:42:23.823Z,15.33
2018-02-22T23:44:51.956Z,15.50
2018-02-22T23:47:20.067Z,15.00
2018-02-22T23:49:48.176Z,14.43
2018-02-22T23:52:16.325Z,15.23
2018-02-22T23:54:44.441Z,14.13
2018-02-22T23:57:12.565Z,15.10
2018-02-22T23:59:40.691Z,15.43
